Time;durP1;ratioP1;P1;durP2;ratioP2;P2;SDS_P1;SDS_P2;PMS_P1;PMS_P2;Temp;Humidity;BMP_temperature;BMP_pressure;BME280_temperature;BME280_humidity;BME280_pressure;Samples;Min_cycle;Max_cycle;Signal;HPM_P1;HPM_P2
2022/10/07 00:00:19;;;;;;;3.20;1.40;;;13.70;99.90;;;;;;5048961;28;20192;-76
2022/10/07 00:02:45;;;;;;;4.67;2.13;;;13.70;99.90;;;;;;5049130;28;20245;-79
2022/10/07 00:05:10;;;;;;;3.67;1.83;;;14.00;99.90;;;;;;5048699;28;20226;-77
2022/10/07 00:07:36;;;;;;;4.63;1.50;;;13.80;99.90;;;;;;5050269;28;20188;-78
2022/10/07 00:10:02;;;;;;;5.83;1.90;;;13.70;99.90;;;;;;5049923;28;20601;-77
2022/10/07 00:12:27;;;;;;;2.70;1.90;;;13.80;99.90;;;;;;5049934;28;20172;-77
2022/10/07 00:14:53;;;;;;;8.40;3.90;;;13.80;99.90;;;;;;5048751;28;20528;-77
2022/10/07 00:17:19;;;;;;;6.03;1.80;;;13.80;99.90;;;;;;5049747;28;20188;-76
2022/10/07 00:19:44;;;;;;;6.57;2.67;;;13.80;99.90;;;;;;5049316;28;20220;-76
2022/10/07 00:22:10;;;;;;;5.03;1.80;;;13.70;99.90;;;;;;5047871;28;20191;-76
2022/10/07 00:24:36;;;;;;;6.03;1.70;;;13.70;99.90;;;;;;5049451;28;20219;-77
2022/10/07 00:27:02;;;;;;;4.30;1.43;;;13.70;99.90;;;;;;5047773;28;20426;-77
2022/10/07 00:29:27;;;;;;;6.97;1.97;;;13.60;99.90;;;;;;5049146;28;20590;-76
2022/10/07 00:31:53;;;;;;;7.63;2.53;;;13.60;99.90;;;;;;5049307;28;20177;-77
2022/10/07 00:34:19;;;;;;;7.37;3.17;;;13.60;99.90;;;;;;5046574;28;20295;-77
2022/10/07 00:36:45;;;;;;;5.37;2.80;;;13.60;99.90;;;;;;5047613;28;20254;-77
2022/10/07 00:39:13;;;;;;;6.13;2.83;;;13.60;99.90;;;;;;5049383;28;20433;-76
2022/10/07 00:41:42;;;;;;;8.10;3.17;;;13.50;99.90;;;;;;5049208;28;20982;-76
2022/10/07 00:44:32;;;;;;;9.90;3.37;;;13.60;99.90;;;;;;5048865;28;20474;-76
2022/10/07 00:47:02;;;;;;;6.10;3.07;;;13.50;99.90;;;;;;5049027;28;20398;-76
2022/10/07 00:49:29;;;;;;;6.23;3.27;;;13.50;99.90;;;;;;5049088;28;20441;-75
2022/10/07 00:51:56;;;;;;;8.80;3.70;;;13.50;99.90;;;;;;5049030;28;21231;-77
2022/10/07 00:54:22;;;;;;;5.97;3.27;;;13.60;99.90;;;;;;5048871;28;20616;-76
2022/10/07 00:56:50;;;;;;;7.33;3.63;;;13.50;99.90;;;;;;5048696;28;20442;-77
2022/10/07 00:59:18;;;;;;;5.90;3.83;;;13.50;99.90;;;;;;5048843;28;20779;-77
2022/10/07 01:01:44;;;;;;;6.93;3.80;;;13.50;99.90;;;;;;5048819;28;20418;-77
2022/10/07 01:04:12;;;;;;;9.37;3.20;;;13.50;99.90;;;;;;5030787;28;20470;-77
2022/10/07 01:06:38;;;;;;;5.00;3.20;;;13.50;99.90;;;;;;5048652;28;20421;-77
2022/10/07 01:09:06;;;;;;;6.17;2.90;;;13.40;99.90;;;;;;5047220;28;20415;-77
2022/10/07 01:11:52;;;;;;;3.30;2.93;;;13.40;99.90;;;;;;5048784;28;20426;-77
2022/10/07 01:14:55;;;;;;;10.80;3.23;;;13.40;99.90;;;;;;5050143;28;20994;-76
2022/10/07 01:17:44;;;;;;;10.23;3.57;;;13.40;99.90;;;;;;5048766;28;20417;-76
2022/10/07 01:20:49;;;;;;;12.53;4.17;;;13.40;99.90;;;;;;5048608;28;20525;-77
2022/10/07 01:23:35;;;;;;;5.20;3.13;;;13.40;99.90;;;;;;5048420;28;20437;-77
2022/10/07 01:26:31;;;;;;;13.00;3.70;;;13.40;99.90;;;;;;5048491;28;20444;-76
2022/10/07 01:29:32;;;;;;;5.10;3.30;;;13.40;99.90;;;;;;5048552;28;20919;-77
2022/10/07 01:32:13;;;;;;;13.23;3.90;;;13.40;99.90;;;;;;5039195;28;20422;-76
2022/10/07 01:34:41;;;;;;;10.60;3.57;;;13.50;99.90;;;;;;5048415;28;20459;-76
2022/10/07 01:37:10;;;;;;;7.87;3.60;;;13.50;99.90;;;;;;5047326;28;20430;-76
2022/10/07 01:39:41;;;;;;;12.53;3.10;;;13.50;99.90;;;;;;5046895;28;20427;-76
2022/10/07 01:42:07;;;;;;;6.83;3.03;;;13.40;99.90;;;;;;5047125;28;20836;-77
2022/10/07 01:44:33;;;;;;;9.03;3.30;;;13.50;99.90;;;;;;5048703;28;20473;-76
2022/10/07 01:46:59;;;;;;;6.00;3.10;;;13.50;99.90;;;;;;5052209;28;20425;-76
2022/10/07 01:49:25;;;;;;;6.93;2.70;;;13.50;99.90;;;;;;5052437;28;20419;-76
2022/10/07 01:52:16;;;;;;;8.63;2.97;;;13.50;99.90;;;;;;5052209;28;20609;-76
2022/10/07 01:55:06;;;;;;;8.10;2.70;;;13.50;99.90;;;;;;5051953;28;20503;-76
2022/10/07 01:57:50;;;;;;;5.03;2.23;;;13.50;99.90;;;;;;5050546;28;20449;-75
2022/10/07 02:00:16;;;;;;;5.13;2.30;;;13.50;99.90;;;;;;5050808;28;20769;-76
2022/10/07 02:03:08;;;;;;;8.47;3.60;;;13.40;99.90;;;;;;5052070;28;20939;-76
2022/10/07 02:05:42;;;;;;;7.90;2.80;;;13.40;99.90;;;;;;5051899;28;20546;-76
2022/10/07 02:08:21;;;;;;;6.13;3.43;;;13.40;99.90;;;;;;5050336;28;20452;-76
2022/10/07 02:11:12;;;;;;;5.53;3.03;;;13.40;99.90;;;;;;5051867;28;20421;-76
2022/10/07 02:13:47;;;;;;;7.00;2.70;;;13.40;99.90;;;;;;5051547;28;20430;-77
2022/10/07 02:16:27;;;;;;;7.33;3.53;;;13.40;99.90;;;;;;5051965;28;20424;-78
2022/10/07 02:18:55;;;;;;;10.27;3.13;;;13.40;99.90;;;;;;5050397;28;20457;-77
2022/10/07 02:21:33;;;;;;;10.50;3.40;;;13.40;99.90;;;;;;5052401;28;20415;-78
2022/10/07 02:23:59;;;;;;;6.40;3.90;;;13.60;99.90;;;;;;5050173;28;20469;-78
2022/10/07 02:26:28;;;;;;;7.10;3.83;;;13.30;99.90;;;;;;5050156;28;20410;-77
2022/10/07 02:28:56;;;;;;;5.90;3.27;;;13.40;99.90;;;;;;5051667;28;20416;-76
2022/10/07 02:31:27;;;;;;;9.60;3.47;;;13.40;99.90;;;;;;5051442;28;20433;-76
2022/10/07 02:33:56;;;;;;;9.53;4.40;;;13.40;99.90;;;;;;5051377;28;20534;-75
2022/10/07 02:36:28;;;;;;;10.50;4.63;;;13.30;99.90;;;;;;5051128;28;20429;-76
2022/10/07 02:38:55;;;;;;;9.60;3.53;;;13.30;99.90;;;;;;5051633;28;20970;-77
2022/10/07 02:41:35;;;;;;;9.03;3.60;;;13.30;99.90;;;;;;5051787;28;20512;-77
2022/10/07 02:44:20;;;;;;;11.50;3.83;;;13.30;99.90;;;;;;5051656;28;20584;-77
2022/10/07 02:47:02;;;;;;;16.73;4.00;;;13.30;99.90;;;;;;5049831;28;20511;-76
2022/10/07 02:49:30;;;;;;;9.97;4.00;;;13.30;99.90;;;;;;5051205;28;20398;-77
2022/10/07 02:52:00;;;;;;;6.90;3.30;;;13.20;99.90;;;;;;5051074;28;20419;-77
2022/10/07 02:54:33;;;;;;;8.00;3.40;;;13.30;99.90;;;;;;5049833;28;20456;-77
2022/10/07 02:57:00;;;;;;;8.40;4.53;;;13.30;99.90;;;;;;5050062;28;20420;-76
2022/10/07 02:59:27;;;;;;;6.77;3.10;;;13.40;99.90;;;;;;5032792;28;20434;-77
2022/10/07 03:01:57;;;;;;;11.47;3.33;;;13.20;99.90;;;;;;5049184;28;20423;-76
2022/10/07 03:04:23;;;;;;;7.90;4.73;;;13.20;99.90;;;;;;5050509;28;20572;-77
2022/10/07 03:06:48;;;;;;;8.57;4.43;;;13.20;99.90;;;;;;5033002;28;20801;-77
2022/10/07 03:09:15;;;;;;;11.77;3.80;;;13.10;99.90;;;;;;5050752;28;20179;-76
2022/10/07 03:11:40;;;;;;;7.97;4.50;;;13.20;99.90;;;;;;5050636;28;20187;-77
2022/10/07 03:14:06;;;;;;;5.30;2.97;;;13.10;99.90;;;;;;5050609;28;20457;-78
2022/10/07 03:16:32;;;;;;;4.40;3.93;;;13.10;99.90;;;;;;5050827;28;20250;-77
2022/10/07 03:19:00;;;;;;;7.50;3.33;;;13.10;99.90;;;;;;5051472;28;20428;-77
2022/10/07 03:21:26;;;;;;;13.43;4.10;;;13.20;99.90;;;;;;5051152;28;20187;-76
2022/10/07 03:23:53;;;;;;;6.50;3.60;;;13.10;99.90;;;;;;5050523;28;20466;-77
2022/10/07 03:26:19;;;;;;;9.93;4.67;;;13.00;99.90;;;;;;5049041;28;20415;-77
2022/10/07 03:28:45;;;;;;;11.73;4.30;;;13.00;99.90;;;;;;5051382;28;20425;-77
2022/10/07 03:31:13;;;;;;;12.93;4.30;;;13.10;99.90;;;;;;5064443;28;20206;-76
2022/10/07 03:33:40;;;;;;;8.63;4.17;;;13.00;99.90;;;;;;5064155;28;20437;-76
2022/10/07 03:36:07;;;;;;;11.63;4.17;;;12.90;99.90;;;;;;5052624;28;20494;-76
2022/10/07 03:38:33;;;;;;;6.73;4.00;;;12.80;99.90;;;;;;5052556;28;20414;-75
2022/10/07 03:41:00;;;;;;;9.70;4.17;;;12.90;99.90;;;;;;5051986;28;20418;-75
2022/10/07 03:43:27;;;;;;;12.20;3.50;;;12.80;99.90;;;;;;5049846;28;20438;-75
2022/10/07 03:45:52;;;;;;;14.80;4.83;;;12.80;99.90;;;;;;5051536;28;20462;-75
2022/10/07 03:48:18;;;;;;;6.17;4.30;;;12.60;99.90;;;;;;5051361;28;20437;-75
2022/10/07 03:50:51;;;;;;;7.20;4.17;;;12.60;99.90;;;;;;5051183;28;20207;-75
2022/10/07 03:53:17;;;;;;;5.93;4.13;;;12.60;99.90;;;;;;5050192;28;20500;-76
2022/10/07 03:55:43;;;;;;;9.90;4.20;;;12.50;99.90;;;;;;5050004;28;20450;-76
2022/10/07 03:58:09;;;;;;;5.00;3.87;;;12.40;99.90;;;;;;5049594;28;21068;-75
2022/10/07 04:00:35;;;;;;;9.57;5.43;;;12.40;99.90;;;;;;5032099;28;20514;-75
2022/10/07 04:03:00;;;;;;;9.97;5.27;;;12.40;99.90;;;;;;5049743;28;20559;-76
2022/10/07 04:05:27;;;;;;;13.10;5.80;;;12.30;99.90;;;;;;5049722;28;20557;-75
2022/10/07 04:07:53;;;;;;;9.30;6.43;;;12.20;99.90;;;;;;5049583;28;20208;-76
2022/10/07 04:10:19;;;;;;;9.33;6.00;;;12.10;99.90;;;;;;5049805;28;20854;-76
2022/10/07 04:12:47;;;;;;;7.70;5.50;;;12.10;99.90;;;;;;5048714;28;20273;-76
2022/10/07 04:15:13;;;;;;;11.00;6.50;;;12.00;99.90;;;;;;5048314;28;20536;-75
2022/10/07 04:17:44;;;;;;;12.57;5.40;;;12.00;99.90;;;;;;5048355;28;20475;-76
2022/10/07 04:20:10;;;;;;;12.60;5.90;;;11.90;99.90;;;;;;5049448;28;20423;-77
2022/10/07 04:22:36;;;;;;;10.70;4.60;;;12.00;99.90;;;;;;5049517;28;20475;-76
2022/10/07 04:27:55;;;;;;;7.67;4.40;;;11.70;99.90;;;;;;5048594;28;20409;-76
2022/10/07 04:30:22;;;;;;;9.50;4.70;;;11.70;99.90;;;;;;5049569;28;20413;-76
2022/10/07 04:32:49;;;;;;;10.33;4.97;;;11.70;99.90;;;;;;5049543;28;20422;-76
2022/10/07 04:35:15;;;;;;;33.03;4.90;;;11.60;99.90;;;;;;5048618;28;20499;-77
2022/10/07 04:37:42;;;;;;;8.10;3.93;;;11.60;99.90;;;;;;5031850;28;20436;-76
2022/10/07 04:40:09;;;;;;;7.10;3.60;;;11.60;99.90;;;;;;5048646;28;20455;-76
2022/10/07 04:45:19;;;;;;;5.77;3.50;;;11.50;99.90;;;;;;5049874;28;20572;-75
2022/10/07 04:47:45;;;;;;;6.00;4.00;;;11.50;99.90;;;;;;5049775;28;20519;-75
2022/10/07 04:50:11;;;;;;;5.77;4.23;;;11.40;99.90;;;;;;5049801;28;20176;-75
2022/10/07 04:52:41;;;;;;;7.40;4.90;;;11.40;99.90;;;;;;5049761;28;20483;-75
2022/10/07 04:55:08;;;;;;;6.87;4.33;;;11.30;99.90;;;;;;5049811;28;20433;-75
2022/10/07 04:57:33;;;;;;;6.43;3.93;;;11.40;99.90;;;;;;5049538;28;20438;-75
2022/10/07 05:00:00;;;;;;;8.00;4.30;;;11.40;99.90;;;;;;5048198;28;20433;-75
2022/10/07 05:02:26;;;;;;;8.53;4.70;;;11.40;99.90;;;;;;5049362;28;20426;-74
2022/10/07 05:04:52;;;;;;;7.27;4.50;;;11.40;99.90;;;;;;5049078;28;20971;-76
2022/10/07 05:07:17;;;;;;;8.33;4.23;;;11.40;99.90;;;;;;5048971;28;20413;-75
2022/10/07 05:09:43;;;;;;;9.20;4.03;;;11.30;99.90;;;;;;5049166;28;20192;-77
2022/10/07 05:12:09;;;;;;;4.87;4.10;;;11.30;99.90;;;;;;5047583;28;20181;-77
2022/10/07 05:14:34;;;;;;;10.30;4.20;;;11.10;99.90;;;;;;5048918;28;20211;-76
2022/10/07 05:17:00;;;;;;;6.90;4.30;;;11.20;99.90;;;;;;5047692;28;20221;-77
2022/10/07 05:19:25;;;;;;;7.20;3.80;;;11.20;99.90;;;;;;5050318;28;20182;-77
2022/10/07 05:21:51;;;;;;;8.07;4.50;;;11.30;99.90;;;;;;5054252;28;20842;-76
2022/10/07 05:24:16;;;;;;;6.30;4.50;;;11.20;99.90;;;;;;5054266;28;20217;-76
2022/10/07 05:26:42;;;;;;;7.67;4.40;;;11.20;99.90;;;;;;5054641;28;20686;-76
2022/10/07 05:29:08;;;;;;;8.93;4.20;;;11.20;99.90;;;;;;5055214;28;20187;-77
2022/10/07 05:31:34;;;;;;;15.40;6.10;;;11.20;99.90;;;;;;5053922;28;20220;-76
2022/10/07 05:34:01;;;;;;;14.03;5.03;;;11.20;99.90;;;;;;5055208;28;20471;-77
2022/10/07 05:36:27;;;;;;;6.67;4.60;;;11.20;99.90;;;;;;5055318;28;20803;-77
2022/10/07 05:38:56;;;;;;;7.60;5.33;;;11.20;99.90;;;;;;5055238;28;20529;-77
2022/10/07 05:41:22;;;;;;;14.37;5.50;;;11.20;99.90;;;;;;5053875;28;20221;-77
2022/10/07 05:43:48;;;;;;;18.00;11.30;;;11.20;99.90;;;;;;5054144;28;20549;-77
2022/10/07 05:46:16;;;;;;;13.40;8.90;;;11.20;99.90;;;;;;5055196;28;20496;-76
2022/10/07 05:48:49;;;;;;;12.70;6.80;;;11.40;99.90;;;;;;5054075;28;20178;-76
2022/10/07 05:51:16;;;;;;;16.27;6.93;;;11.20;99.90;;;;;;5053873;28;20432;-76
2022/10/07 05:53:41;;;;;;;8.13;5.23;;;11.30;99.90;;;;;;5054868;28;20444;-75
2022/10/07 05:56:09;;;;;;;11.37;6.47;;;11.20;99.90;;;;;;5055056;28;20428;-75
2022/10/07 05:58:35;;;;;;;8.33;5.90;;;11.20;99.90;;;;;;5055150;28;20445;-75
2022/10/07 06:01:03;;;;;;;16.03;6.70;;;11.40;99.90;;;;;;5054999;28;20590;-76
2022/10/07 06:03:28;;;;;;;17.73;6.60;;;11.20;99.90;;;;;;5054914;28;20443;-75
2022/10/07 06:05:54;;;;;;;9.50;5.07;;;11.30;99.90;;;;;;5054772;28;20465;-76
2022/10/07 06:08:22;;;;;;;23.23;6.00;;;11.30;99.90;;;;;;5055187;28;20261;-76
2022/10/07 06:13:34;;;;;;;9.60;6.60;;;11.30;99.90;;;;;;5055191;28;20778;-74
2022/10/07 06:16:01;;;;;;;13.10;7.67;;;11.40;99.90;;;;;;5055136;28;20417;-76
2022/10/07 06:18:27;;;;;;;16.97;8.10;;;11.50;99.90;;;;;;5055199;28;20566;-76
2022/10/07 06:20:54;;;;;;;13.80;8.03;;;11.70;99.90;;;;;;5055544;28;20512;-75
2022/10/07 06:23:20;;;;;;;11.70;8.60;;;11.80;99.90;;;;;;5054124;28;20187;-76
2022/10/07 06:25:57;;;;;;;14.43;7.97;;;11.70;99.90;;;;;;5054079;28;21004;-76
2022/10/07 06:28:23;;;;;;;12.80;8.30;;;11.80;99.90;;;;;;5055494;28;20193;-76
2022/10/07 06:30:49;;;;;;;12.00;7.73;;;11.80;99.90;;;;;;5053045;28;20427;-76
2022/10/07 06:33:16;;;;;;;11.67;7.83;;;11.80;99.90;;;;;;5051508;28;20420;-76
2022/10/07 06:35:42;;;;;;;13.77;8.37;;;11.90;99.90;;;;;;5052159;28;20417;-76
2022/10/07 06:38:08;;;;;;;15.90;8.30;;;11.90;99.90;;;;;;5051970;28;20796;-76
2022/10/07 06:40:34;;;;;;;10.20;8.10;;;12.00;99.90;;;;;;5051751;28;20433;-76
2022/10/07 06:42:59;;;;;;;15.17;9.10;;;12.10;99.90;;;;;;5051463;28;20190;-76
2022/10/07 06:45:25;;;;;;;15.80;7.70;;;12.10;99.90;;;;;;5051168;28;20214;-76
2022/10/07 06:47:51;;;;;;;15.57;8.17;;;12.20;99.90;;;;;;5049952;28;20187;-76
2022/10/07 06:50:17;;;;;;;12.63;7.90;;;12.30;99.90;;;;;;5049855;28;20189;-76
2022/10/07 06:52:43;;;;;;;12.93;7.33;;;12.30;99.90;;;;;;5051210;28;20508;-76
2022/10/07 06:55:09;;;;;;;18.30;7.90;;;12.30;99.90;;;;;;5051069;28;20582;-76
2022/10/07 06:57:34;;;;;;;16.00;8.10;;;12.40;99.90;;;;;;5050152;28;20221;-76
2022/10/07 07:00:00;;;;;;;21.47;8.47;;;12.40;99.90;;;;;;5048260;28;20433;-76
2022/10/07 07:02:28;;;;;;;13.10;8.07;;;12.40;99.90;;;;;;5048294;28;20204;-76
2022/10/07 07:04:54;;;;;;;13.80;8.30;;;12.50;99.90;;;;;;5049584;28;20215;-76
2022/10/07 07:07:22;;;;;;;14.17;9.77;;;12.60;99.90;;;;;;5031349;28;20426;-76
2022/10/07 07:09:47;;;;;;;18.10;8.30;;;12.60;99.90;;;;;;5049675;28;20172;-74
2022/10/07 07:12:13;;;;;;;15.67;8.10;;;12.70;99.90;;;;;;5047946;28;20953;-76
2022/10/07 07:14:40;;;;;;;10.40;6.37;;;12.80;99.90;;;;;;5047965;28;20202;-76
2022/10/07 07:17:05;;;;;;;13.23;6.37;;;12.90;99.90;;;;;;5049609;28;20418;-76
2022/10/07 07:19:31;;;;;;;8.70;6.80;;;13.00;99.90;;;;;;5049381;28;20802;-76
2022/10/07 07:21:57;;;;;;;13.13;6.80;;;13.00;99.90;;;;;;5047536;28;20864;-77
2022/10/07 07:24:22;;;;;;;10.67;7.20;;;13.10;99.90;;;;;;5030936;28;20226;-76
2022/10/07 07:26:48;;;;;;;9.60;6.77;;;13.20;99.90;;;;;;5049414;28;20176;-76
2022/10/07 07:29:15;;;;;;;15.87;7.13;;;13.30;99.90;;;;;;5049341;28;20184;-77
2022/10/07 07:31:41;;;;;;;9.30;7.30;;;13.40;99.90;;;;;;5049899;28;20183;-76
2022/10/07 07:34:10;;;;;;;15.00;6.87;;;13.60;99.90;;;;;;5049407;28;20801;-75
2022/10/07 07:36:37;;;;;;;13.70;7.60;;;13.60;99.90;;;;;;5052096;28;20555;-78
2022/10/07 07:39:11;;;;;;;10.53;6.90;;;13.80;99.90;;;;;;5050960;28;20422;-77
2022/10/07 07:41:40;;;;;;;17.30;7.03;;;13.90;99.90;;;;;;5031995;28;20500;-76
2022/10/07 07:44:09;;;;;;;7.00;5.50;;;14.10;99.90;;;;;;5047271;28;21162;-76
2022/10/07 07:46:40;;;;;;;13.03;4.83;;;14.10;99.90;;;;;;5049335;28;20421;-77
2022/10/07 07:49:09;;;;;;;10.90;6.33;;;14.30;99.90;;;;;;5049776;28;20407;-76
2022/10/07 07:51:35;;;;;;;15.03;6.77;;;14.30;99.90;;;;;;5050420;28;20949;-77
2022/10/07 07:54:01;;;;;;;13.20;6.60;;;14.30;99.90;;;;;;5050999;28;20470;-77
2022/10/07 07:56:28;;;;;;;10.03;6.67;;;14.20;99.90;;;;;;5047532;28;21320;-78
2022/10/07 07:58:54;;;;;;;11.77;7.50;;;14.30;99.90;;;;;;5048681;28;20200;-76
2022/10/07 08:01:20;;;;;;;13.63;7.43;;;14.20;99.90;;;;;;5047378;28;20540;-78
2022/10/07 08:03:46;;;;;;;15.07;8.30;;;14.30;99.90;;;;;;5047204;28;20963;-75
2022/10/07 08:06:16;;;;;;;16.13;8.90;;;14.40;99.90;;;;;;5048205;28;20619;-76
2022/10/07 08:08:43;;;;;;;20.53;10.57;;;14.50;99.90;;;;;;5048492;28;20938;-76
2022/10/07 08:11:11;;;;;;;16.20;11.07;;;14.30;99.90;;;;;;5048847;28;20511;-75
2022/10/07 08:13:40;;;;;;;21.10;11.33;;;14.30;99.90;;;;;;5047695;28;20461;-75
2022/10/07 08:16:06;;;;;;;17.90;10.70;;;14.30;99.90;;;;;;5049141;28;20436;-77
2022/10/07 08:18:32;;;;;;;17.77;11.53;;;14.40;99.90;;;;;;5049089;28;20517;-76
2022/10/07 08:21:00;;;;;;;17.50;10.70;;;14.40;99.90;;;;;;5049216;28;20513;-77
2022/10/07 08:23:28;;;;;;;19.53;12.10;;;14.40;99.90;;;;;;5049327;28;20503;-77
2022/10/07 08:25:58;;;;;;;24.53;12.20;;;14.50;99.90;;;;;;5047239;28;20830;-76
2022/10/07 08:28:24;;;;;;;18.10;11.50;;;14.80;99.90;;;;;;5047430;28;20418;-76
2022/10/07 08:30:51;;;;;;;19.13;11.30;;;15.00;99.90;;;;;;5048826;28;20426;-76
2022/10/07 08:33:17;;;;;;;20.27;10.87;;;15.20;99.90;;;;;;5046383;28;20473;-77
2022/10/07 08:35:56;;;;;;;21.70;11.77;;;15.30;99.90;;;;;;5046956;28;20423;-77
2022/10/07 08:38:21;;;;;;;17.50;11.80;;;15.50;99.90;;;;;;5047800;28;20417;-77
2022/10/07 08:40:49;;;;;;;18.20;10.93;;;15.70;99.90;;;;;;5046500;28;20436;-76
2022/10/07 08:43:17;;;;;;;20.67;12.90;;;15.80;99.90;;;;;;5046665;28;20192;-77
2022/10/07 08:45:43;;;;;;;24.30;13.67;;;15.60;99.90;;;;;;5047957;28;20470;-76
2022/10/07 08:48:15;;;;;;;24.97;14.00;;;15.50;99.90;;;;;;5047618;28;20414;-77
2022/10/07 08:50:50;;;;;;;20.50;12.37;;;15.70;99.90;;;;;;5046399;28;20509;-76
2022/10/07 08:53:21;;;;;;;18.83;11.20;;;15.70;99.90;;;;;;5047605;28;20414;-76
2022/10/07 08:56:05;;;;;;;22.67;12.57;;;15.70;99.90;;;;;;5047331;28;20417;-77
2022/10/07 08:58:47;;;;;;;23.20;13.67;;;15.90;99.90;;;;;;5046768;28;20546;-77
2022/10/07 09:01:31;;;;;;;21.83;13.20;;;15.50;99.90;;;;;;5047233;28;20422;-77
2022/10/07 09:04:19;;;;;;;23.10;12.80;;;15.40;99.90;;;;;;5046069;28;20455;-77
2022/10/07 09:06:51;;;;;;;21.80;13.00;;;15.50;99.90;;;;;;5046089;28;20428;-76
2022/10/07 09:09:35;;;;;;;23.10;13.00;;;15.60;99.90;;;;;;5046147;28;20964;-76
2022/10/07 09:12:04;;;;;;;23.07;14.53;;;15.90;99.90;;;;;;5048273;28;20410;-77
2022/10/07 09:14:36;;;;;;;21.80;13.87;;;15.50;99.90;;;;;;5047997;28;20439;-76
2022/10/07 09:17:19;;;;;;;21.80;12.93;;;15.70;99.90;;;;;;5047620;28;20417;-75
2022/10/07 09:19:48;;;;;;;20.27;13.60;;;15.70;99.90;;;;;;5047843;28;20423;-77
2022/10/07 09:22:41;;;;;;;18.13;13.03;;;15.70;99.90;;;;;;5046664;28;20418;-77
2022/10/07 09:25:10;;;;;;;21.63;12.67;;;15.60;99.90;;;;;;5028259;28;20498;-77
2022/10/07 09:27:35;;;;;;;23.17;12.40;;;15.50;99.90;;;;;;5047933;28;20787;-77
2022/10/07 09:30:02;;;;;;;15.90;11.17;;;15.70;99.90;;;;;;5046528;28;20423;-75
2022/10/07 09:32:28;;;;;;;18.90;12.47;;;15.80;99.90;;;;;;5048128;28;20174;-76
2022/10/07 09:34:54;;;;;;;23.83;11.60;;;16.00;99.90;;;;;;5046819;28;20495;-76
2022/10/07 09:37:26;;;;;;;18.80;12.37;;;16.00;99.90;;;;;;5049837;28;20427;-76
2022/10/07 09:39:55;;;;;;;19.50;12.73;;;16.00;99.90;;;;;;5047916;28;20189;-77
2022/10/07 09:42:27;;;;;;;19.60;12.10;;;16.10;99.90;;;;;;5048485;28;20418;-77
2022/10/07 09:44:54;;;;;;;19.80;13.07;;;16.20;99.90;;;;;;5064688;28;20477;-75
2022/10/07 09:47:23;;;;;;;14.80;11.63;;;16.60;99.90;;;;;;5072786;28;20436;-76
2022/10/07 09:49:55;;;;;;;17.30;11.20;;;16.80;99.90;;;;;;5059029;28;20515;-77
2022/10/07 09:52:23;;;;;;;15.07;11.30;;;16.80;99.90;;;;;;5049017;28;20432;-78
2022/10/07 09:54:51;;;;;;;15.53;10.80;;;17.10;99.90;;;;;;5049417;28;20487;-76
2022/10/07 09:57:26;;;;;;;17.43;11.77;;;17.50;99.90;;;;;;5047538;28;20456;-77
2022/10/07 10:00:10;;;;;;;15.03;11.90;;;17.80;99.90;;;;;;5048922;28;20490;-77
2022/10/07 10:02:36;;;;;;;19.60;12.37;;;17.40;99.90;;;;;;5048689;28;20473;-77
2022/10/07 10:05:01;;;;;;;15.07;11.07;;;17.40;99.90;;;;;;5048312;28;20507;-76
2022/10/07 10:07:32;;;;;;;17.37;11.20;;;17.60;99.90;;;;;;5052227;28;20193;-76
2022/10/07 10:10:16;;;;;;;19.03;11.33;;;17.80;99.90;;;;;;5051126;28;20179;-76
2022/10/07 10:12:50;;;;;;;17.90;11.57;;;18.00;99.90;;;;;;5051184;28;20416;-76
2022/10/07 10:15:22;;;;;;;20.30;12.13;;;18.00;99.90;;;;;;5051548;28;20509;-77
2022/10/07 10:17:47;;;;;;;17.80;11.23;;;17.90;99.90;;;;;;5051519;28;20463;-77
2022/10/07 10:20:34;;;;;;;15.13;10.67;;;17.70;99.90;;;;;;5051642;28;20415;-77
2022/10/07 10:23:20;;;;;;;12.40;8.70;;;18.10;99.90;;;;;;5051664;28;20193;-77
2022/10/07 10:29:01;;;;;;;13.90;9.20;;;19.10;99.90;;;;;;5052142;28;20414;-77
2022/10/07 10:31:35;;;;;;;19.10;10.60;;;19.20;99.90;;;;;;5051135;28;20415;-76
2022/10/07 10:34:20;;;;;;;15.47;9.67;;;19.10;99.90;;;;;;5050901;28;20440;-76
2022/10/07 10:36:56;;;;;;;12.07;8.67;;;18.70;99.90;;;;;;5050892;28;20414;-76
2022/10/07 10:39:39;;;;;;;13.80;10.17;;;18.70;99.90;;;;;;5049457;28;20930;-76
2022/10/07 10:42:11;;;;;;;12.60;9.57;;;18.60;99.90;;;;;;5049112;28;20457;-76
2022/10/07 10:44:48;;;;;;;14.60;9.40;;;18.50;99.90;;;;;;5049032;28;20477;-76
2022/10/07 10:47:35;;;;;;;16.80;11.23;;;18.10;99.90;;;;;;5050452;28;20497;-76
2022/10/07 10:50:04;;;;;;;18.60;10.90;;;18.00;99.90;;;;;;5050812;28;20398;-76
2022/10/07 10:52:36;;;;;;;14.20;11.00;;;17.80;99.90;;;;;;5050585;28;21121;-76
2022/10/07 10:55:22;;;;;;;20.40;10.40;;;17.80;99.90;;;;;;5050662;28;20923;-76
2022/10/07 10:57:57;;;;;;;15.40;11.67;;;17.80;99.90;;;;;;5050271;28;20997;-77
2022/10/07 11:00:22;;;;;;;13.93;10.10;;;17.80;99.90;;;;;;5050154;28;20424;-76
2022/10/07 11:03:16;;;;;;;19.20;10.30;;;17.80;99.90;;;;;;5048156;28;20438;-76
2022/10/07 11:05:42;;;;;;;23.67;10.93;;;17.80;99.90;;;;;;5049811;28;20262;-76
2022/10/07 11:08:16;;;;;;;13.90;10.50;;;17.80;99.90;;;;;;5048321;28;20472;-76
2022/10/07 11:10:56;;;;;;;20.27;11.77;;;17.90;99.90;;;;;;5049807;28;20417;-77
2022/10/07 11:13:37;;;;;;;16.57;11.00;;;17.70;99.90;;;;;;5049368;28;20414;-77
2022/10/07 11:16:26;;;;;;;14.63;9.33;;;17.60;99.90;;;;;;5049019;28;20539;-76
2022/10/07 11:19:23;;;;;;;17.40;10.23;;;17.80;99.90;;;;;;5048452;28;20425;-76
2022/10/07 11:21:51;;;;;;;14.23;9.70;;;17.80;99.90;;;;;;5049238;28;20833;-76
2022/10/07 11:24:21;;;;;;;15.70;11.03;;;17.60;99.90;;;;;;5048896;28;20985;-76
2022/10/07 11:26:57;;;;;;;14.20;9.60;;;17.40;99.90;;;;;;5049540;28;20416;-76
2022/10/07 11:29:42;;;;;;;19.00;10.57;;;17.50;99.90;;;;;;5049080;28;20428;-76
2022/10/07 11:32:37;;;;;;;12.90;10.10;;;17.60;99.90;;;;;;5049387;28;20922;-76
2022/10/07 11:35:30;;;;;;;16.20;10.00;;;17.60;99.90;;;;;;5044114;28;20504;-76
2022/10/07 11:38:11;;;;;;;10.50;9.40;;;17.70;99.90;;;;;;5048777;28;20466;-76
2022/10/07 11:41:09;;;;;;;12.53;8.53;;;17.70;99.90;;;;;;5049215;28;20453;-75
2022/10/07 11:43:37;;;;;;;14.43;9.47;;;17.70;99.90;;;;;;5048341;28;20444;-77
2022/10/07 11:46:26;;;;;;;10.43;8.03;;;17.40;99.90;;;;;;5047290;28;20675;-77
2022/10/07 11:48:59;;;;;;;14.33;9.10;;;17.30;99.90;;;;;;5048793;28;20421;-76
2022/10/07 11:51:49;;;;;;;33.07;10.83;;;17.40;99.90;;;;;;5048786;28;20421;-77
2022/10/07 11:54:19;;;;;;;13.17;8.70;;;17.40;99.90;;;;;;5047075;28;20460;-76
2022/10/07 11:56:49;;;;;;;12.77;7.80;;;17.60;99.90;;;;;;5048539;28;20800;-77
2022/10/07 11:59:42;;;;;;;11.90;8.57;;;17.50;99.90;;;;;;5047475;28;20437;-77
2022/10/07 12:02:29;;;;;;;8.67;6.80;;;17.30;99.90;;;;;;5048328;28;20832;-77
2022/10/07 12:04:56;;;;;;;11.90;8.10;;;17.60;99.90;;;;;;5048144;28;20487;-76
2022/10/07 12:07:31;;;;;;;12.33;6.90;;;17.60;99.90;;;;;;5048442;28;20428;-76
2022/10/07 12:10:02;;;;;;;11.43;7.80;;;17.50;99.90;;;;;;5048471;28;20913;-76
2022/10/07 12:12:43;;;;;;;9.30;7.50;;;17.50;99.90;;;;;;5046554;28;20504;-75
2022/10/07 12:15:27;;;;;;;10.13;7.30;;;17.80;99.90;;;;;;5046801;28;21301;-76
2022/10/07 12:18:16;;;;;;;10.63;6.83;;;18.00;99.90;;;;;;5046508;28;20458;-77
2022/10/07 12:20:45;;;;;;;7.60;6.80;;;18.60;99.90;;;;;;5037405;28;20963;-78
2022/10/07 12:23:19;;;;;;;10.40;6.90;;;18.40;99.90;;;;;;5049034;28;20895;-77
2022/10/07 12:25:46;;;;;;;16.40;7.30;;;18.40;99.90;;;;;;5048729;28;20465;-77
2022/10/07 12:28:16;;;;;;;8.10;6.30;;;18.30;99.90;;;;;;5048753;28;20805;-77
2022/10/07 12:30:50;;;;;;;12.47;6.67;;;18.20;99.90;;;;;;5049065;28;20429;-78
2022/10/07 12:33:43;;;;;;;7.10;6.40;;;18.20;99.90;;;;;;5049198;28;20515;-78
2022/10/07 12:36:39;;;;;;;11.73;7.23;;;17.90;99.90;;;;;;5048286;28;20426;-76
2022/10/07 12:39:08;;;;;;;7.60;5.90;;;17.90;99.90;;;;;;5047286;28;20441;-76
2022/10/07 12:41:41;;;;;;;11.73;7.37;;;17.80;99.90;;;;;;5048164;28;20422;-76
2022/10/07 12:44:15;;;;;;;9.80;7.20;;;17.60;99.90;;;;;;5047953;28;20430;-76
2022/10/07 12:46:46;;;;;;;9.27;6.90;;;17.50;99.90;;;;;;5047958;28;20405;-76
2022/10/07 12:49:35;;;;;;;8.60;6.73;;;17.40;99.90;;;;;;5046197;28;20868;-77
2022/10/07 12:52:26;;;;;;;9.20;6.93;;;17.40;99.90;;;;;;5046494;28;20425;-76
2022/10/07 12:55:14;;;;;;;8.67;6.43;;;17.30;99.90;;;;;;5029681;28;20502;-77
2022/10/07 12:57:46;;;;;;;14.23;6.50;;;17.30;99.90;;;;;;5047631;28;20871;-76
2022/10/07 13:00:18;;;;;;;8.83;7.40;;;17.40;99.90;;;;;;5047503;28;20530;-77
2022/10/07 13:03:20;;;;;;;14.03;7.23;;;17.30;99.90;;;;;;5047442;28;20514;-77
2022/10/07 13:06:02;;;;;;;9.43;6.57;;;17.40;99.90;;;;;;5031405;28;20997;-77
2022/10/07 13:08:49;;;;;;;6.53;5.57;;;17.50;99.90;;;;;;5047340;28;20422;-77
2022/10/07 13:11:38;;;;;;;15.20;6.70;;;17.80;99.90;;;;;;5047309;28;20421;-76